sensor_id;sensor_type;location;lat;lon;timestamp;P1;durP1;ratioP1;P2;durP2;ratioP2
17921;SDS011;9086;50.966;3.144;2022-10-16T00:01:10;2.53;;;1.10;;
17921;SDS011;9086;50.966;3.144;2022-10-16T00:03:37;1.47;;;1.20;;
17921;SDS011;9086;50.966;3.144;2022-10-16T00:06:04;3.57;;;1.10;;
17921;SDS011;9086;50.966;3.144;2022-10-16T00:08:30;0.90;;;0.90;;
17921;SDS011;9086;50.966;3.144;2022-10-16T00:11:00;0.90;;;0.90;;
17921;SDS011;9086;50.966;3.144;2022-10-16T00:13:26;2.03;;;0.80;;
17921;SDS011;9086;50.966;3.144;2022-10-16T00:15:54;1.80;;;1.20;;
17921;SDS011;9086;50.966;3.144;2022-10-16T00:18:20;3.57;;;1.27;;
17921;SDS011;9086;50.966;3.144;2022-10-16T00:20:46;1.17;;;1.07;;
17921;SDS011;9086;50.966;3.144;2022-10-16T00:23:12;2.90;;;1.23;;
17921;SDS011;9086;50.966;3.144;2022-10-16T00:25:38;1.60;;;1.10;;
17921;SDS011;9086;50.966;3.144;2022-10-16T00:28:05;1.87;;;1.30;;
17921;SDS011;9086;50.966;3.144;2022-10-16T00:30:31;1.53;;;1.17;;
17921;SDS011;9086;50.966;3.144;2022-10-16T00:32:57;1.93;;;1.20;;
17921;SDS011;9086;50.966;3.144;2022-10-16T00:35:23;1.73;;;1.03;;
17921;SDS011;9086;50.966;3.144;2022-10-16T00:37:49;1.30;;;1.10;;
17921;SDS011;9086;50.966;3.144;2022-10-16T00:40:15;1.20;;;1.10;;
17921;SDS011;9086;50.966;3.144;2022-10-16T00:42:41;1.27;;;1.17;;
17921;SDS011;9086;50.966;3.144;2022-10-16T00:45:08;1.10;;;1.10;;
17921;SDS011;9086;50.966;3.144;2022-10-16T00:47:36;1.87;;;1.77;;
17921;SDS011;9086;50.966;3.144;2022-10-16T00:52:35;2.00;;;1.50;;
17921;SDS011;9086;50.966;3.144;2022-10-16T00:55:02;1.60;;;1.50;;
17921;SDS011;9086;50.966;3.144;2022-10-16T00:57:29;3.40;;;1.90;;
17921;SDS011;9086;50.966;3.144;2022-10-16T00:59:55;1.40;;;1.30;;
17921;SDS011;9086;50.966;3.144;2022-10-16T01:02:21;2.60;;;1.80;;
17921;SDS011;9086;50.966;3.144;2022-10-16T01:04:48;3.47;;;1.70;;
17921;SDS011;9086;50.966;3.144;2022-10-16T01:15:08;1.80;;;0.83;;
17921;SDS011;9086;50.966;3.144;2022-10-16T01:25:23;2.53;;;1.23;;
17921;SDS011;9086;50.966;3.144;2022-10-16T01:27:51;2.20;;;0.87;;
17921;SDS011;9086;50.966;3.144;2022-10-16T01:30:25;1.70;;;0.90;;
17921;SDS011;9086;50.966;3.144;2022-10-16T01:32:54;2.70;;;1.27;;
17921;SDS011;9086;50.966;3.144;2022-10-16T01:35:22;1.90;;;1.00;;
17921;SDS011;9086;50.966;3.144;2022-10-16T01:40:25;2.90;;;1.10;;
17921;SDS011;9086;50.966;3.144;2022-10-16T01:42:53;1.20;;;1.10;;
17921;SDS011;9086;50.966;3.144;2022-10-16T01:45:21;1.90;;;1.07;;
17921;SDS011;9086;50.966;3.144;2022-10-16T01:47:48;1.93;;;1.10;;
17921;SDS011;9086;50.966;3.144;2022-10-16T01:50:15;1.50;;;1.10;;
17921;SDS011;9086;50.966;3.144;2022-10-16T01:52:43;2.87;;;1.10;;
17921;SDS011;9086;50.966;3.144;2022-10-16T01:55:11;2.33;;;1.10;;
17921;SDS011;9086;50.966;3.144;2022-10-16T01:57:39;3.23;;;1.07;;
17921;SDS011;9086;50.966;3.144;2022-10-16T02:00:07;3.03;;;1.10;;
17921;SDS011;9086;50.966;3.144;2022-10-16T02:02:34;1.73;;;1.03;;
17921;SDS011;9086;50.966;3.144;2022-10-16T02:07:35;2.50;;;1.00;;
17921;SDS011;9086;50.966;3.144;2022-10-16T02:10:01;4.90;;;1.23;;
17921;SDS011;9086;50.966;3.144;2022-10-16T02:12:28;1.30;;;1.10;;
17921;SDS011;9086;50.966;3.144;2022-10-16T02:14:57;1.10;;;1.00;;
17921;SDS011;9086;50.966;3.144;2022-10-16T02:17:23;2.20;;;1.10;;
17921;SDS011;9086;50.966;3.144;2022-10-16T02:19:49;3.23;;;1.67;;
17921;SDS011;9086;50.966;3.144;2022-10-16T02:22:27;1.23;;;1.10;;
17921;SDS011;9086;50.966;3.144;2022-10-16T02:24:57;2.23;;;1.37;;
17921;SDS011;9086;50.966;3.144;2022-10-16T02:29:52;2.07;;;1.00;;
17921;SDS011;9086;50.966;3.144;2022-10-16T02:32:23;3.30;;;1.27;;
17921;SDS011;9086;50.966;3.144;2022-10-16T02:34:50;5.83;;;1.13;;
17921;SDS011;9086;50.966;3.144;2022-10-16T02:37:16;0.90;;;0.90;;
17921;SDS011;9086;50.966;3.144;2022-10-16T02:39:43;2.33;;;1.00;;
17921;SDS011;9086;50.966;3.144;2022-10-16T02:42:12;3.70;;;1.57;;
17921;SDS011;9086;50.966;3.144;2022-10-16T02:44:39;1.97;;;1.20;;
17921;SDS011;9086;50.966;3.144;2022-10-16T02:47:05;1.20;;;1.10;;
17921;SDS011;9086;50.966;3.144;2022-10-16T02:49:31;4.87;;;2.70;;
17921;SDS011;9086;50.966;3.144;2022-10-16T02:51:57;4.93;;;1.47;;
17921;SDS011;9086;50.966;3.144;2022-10-16T02:54:23;1.37;;;1.17;;
17921;SDS011;9086;50.966;3.144;2022-10-16T02:56:49;2.30;;;1.40;;
17921;SDS011;9086;50.966;3.144;2022-10-16T02:59:15;1.33;;;1.20;;
17921;SDS011;9086;50.966;3.144;2022-10-16T03:01:41;2.87;;;1.53;;
17921;SDS011;9086;50.966;3.144;2022-10-16T03:04:07;2.83;;;1.30;;
17921;SDS011;9086;50.966;3.144;2022-10-16T03:06:34;3.43;;;1.63;;
17921;SDS011;9086;50.966;3.144;2022-10-16T03:09:00;2.70;;;1.20;;
17921;SDS011;9086;50.966;3.144;2022-10-16T03:11:26;1.73;;;1.50;;
17921;SDS011;9086;50.966;3.144;2022-10-16T03:13:53;3.03;;;1.30;;
17921;SDS011;9086;50.966;3.144;2022-10-16T03:16:19;3.20;;;1.20;;
17921;SDS011;9086;50.966;3.144;2022-10-16T03:18:47;4.53;;;1.57;;
17921;SDS011;9086;50.966;3.144;2022-10-16T03:21:14;4.93;;;1.60;;
17921;SDS011;9086;50.966;3.144;2022-10-16T03:23:40;2.13;;;1.40;;
17921;SDS011;9086;50.966;3.144;2022-10-16T03:26:06;1.83;;;1.10;;
17921;SDS011;9086;50.966;3.144;2022-10-16T03:28:32;4.27;;;1.40;;
17921;SDS011;9086;50.966;3.144;2022-10-16T03:30:58;3.43;;;1.27;;
17921;SDS011;9086;50.966;3.144;2022-10-16T03:33:24;3.87;;;1.40;;
17921;SDS011;9086;50.966;3.144;2022-10-16T03:35:51;1.43;;;1.10;;
17921;SDS011;9086;50.966;3.144;2022-10-16T03:38:18;3.33;;;1.50;;
17921;SDS011;9086;50.966;3.144;2022-10-16T03:40:44;2.40;;;1.27;;
17921;SDS011;9086;50.966;3.144;2022-10-16T03:43:10;3.47;;;1.40;;
17921;SDS011;9086;50.966;3.144;2022-10-16T03:45:36;3.03;;;1.20;;
17921;SDS011;9086;50.966;3.144;2022-10-16T03:48:02;2.00;;;1.43;;
17921;SDS011;9086;50.966;3.144;2022-10-16T03:50:28;2.40;;;1.40;;
17921;SDS011;9086;50.966;3.144;2022-10-16T03:52:54;4.90;;;1.47;;
17921;SDS011;9086;50.966;3.144;2022-10-16T03:55:20;2.93;;;1.60;;
17921;SDS011;9086;50.966;3.144;2022-10-16T03:57:46;2.27;;;1.40;;
17921;SDS011;9086;50.966;3.144;2022-10-16T04:00:12;2.53;;;1.20;;
17921;SDS011;9086;50.966;3.144;2022-10-16T04:02:39;4.50;;;1.70;;
17921;SDS011;9086;50.966;3.144;2022-10-16T04:05:05;4.13;;;1.20;;
17921;SDS011;9086;50.966;3.144;2022-10-16T04:07:32;3.23;;;1.50;;
17921;SDS011;9086;50.966;3.144;2022-10-16T04:09:58;4.77;;;1.67;;
17921;SDS011;9086;50.966;3.144;2022-10-16T04:12:25;2.93;;;1.50;;
17921;SDS011;9086;50.966;3.144;2022-10-16T04:14:51;3.63;;;2.10;;
17921;SDS011;9086;50.966;3.144;2022-10-16T04:17:17;3.83;;;2.03;;
17921;SDS011;9086;50.966;3.144;2022-10-16T04:19:43;3.13;;;2.10;;
17921;SDS011;9086;50.966;3.144;2022-10-16T04:22:09;5.20;;;2.60;;
17921;SDS011;9086;50.966;3.144;2022-10-16T04:24:35;3.67;;;2.53;;
17921;SDS011;9086;50.966;3.144;2022-10-16T04:27:01;3.43;;;2.53;;
17921;SDS011;9086;50.966;3.144;2022-10-16T04:29:27;3.73;;;2.70;;
17921;SDS011;9086;50.966;3.144;2022-10-16T04:31:53;3.37;;;2.90;;
17921;SDS011;9086;50.966;3.144;2022-10-16T04:34:19;5.30;;;2.80;;
17921;SDS011;9086;50.966;3.144;2022-10-16T04:36:49;3.57;;;2.63;;
17921;SDS011;9086;50.966;3.144;2022-10-16T04:39:15;3.27;;;2.97;;
17921;SDS011;9086;50.966;3.144;2022-10-16T04:41:41;4.27;;;3.30;;
17921;SDS011;9086;50.966;3.144;2022-10-16T04:44:07;5.90;;;3.53;;
17921;SDS011;9086;50.966;3.144;2022-10-16T04:46:33;5.40;;;3.00;;
17921;SDS011;9086;50.966;3.144;2022-10-16T04:48:59;6.57;;;3.27;;
17921;SDS011;9086;50.966;3.144;2022-10-16T04:51:26;5.30;;;3.57;;
17921;SDS011;9086;50.966;3.144;2022-10-16T04:53:52;4.43;;;3.67;;
17921;SDS011;9086;50.966;3.144;2022-10-16T04:56:19;5.97;;;4.20;;
17921;SDS011;9086;50.966;3.144;2022-10-16T04:58:46;6.40;;;3.93;;
17921;SDS011;9086;50.966;3.144;2022-10-16T05:01:12;5.93;;;3.87;;
17921;SDS011;9086;50.966;3.144;2022-10-16T05:03:38;5.97;;;4.20;;
17921;SDS011;9086;50.966;3.144;2022-10-16T05:06:05;4.90;;;4.00;;
17921;SDS011;9086;50.966;3.144;2022-10-16T05:08:31;7.03;;;3.80;;
17921;SDS011;9086;50.966;3.144;2022-10-16T05:10:57;9.43;;;4.00;;
17921;SDS011;9086;50.966;3.144;2022-10-16T05:13:23;6.87;;;3.83;;
17921;SDS011;9086;50.966;3.144;2022-10-16T05:15:49;4.10;;;3.17;;
17921;SDS011;9086;50.966;3.144;2022-10-16T05:18:15;4.20;;;2.80;;
17921;SDS011;9086;50.966;3.144;2022-10-16T05:20:42;5.10;;;2.73;;
17921;SDS011;9086;50.966;3.144;2022-10-16T05:23:08;3.60;;;2.33;;
17921;SDS011;9086;50.966;3.144;2022-10-16T05:25:35;2.63;;;2.43;;
17921;SDS011;9086;50.966;3.144;2022-10-16T05:28:01;3.63;;;3.00;;
17921;SDS011;9086;50.966;3.144;2022-10-16T05:30:28;4.30;;;2.43;;
17921;SDS011;9086;50.966;3.144;2022-10-16T05:32:54;5.13;;;2.87;;
17921;SDS011;9086;50.966;3.144;2022-10-16T05:35:20;5.07;;;3.10;;
17921;SDS011;9086;50.966;3.144;2022-10-16T05:37:46;5.20;;;2.57;;
17921;SDS011;9086;50.966;3.144;2022-10-16T05:40:12;3.70;;;2.30;;
17921;SDS011;9086;50.966;3.144;2022-10-16T05:42:39;5.70;;;2.30;;
17921;SDS011;9086;50.966;3.144;2022-10-16T05:45:05;6.97;;;2.43;;
17921;SDS011;9086;50.966;3.144;2022-10-16T05:47:31;5.37;;;1.97;;
17921;SDS011;9086;50.966;3.144;2022-10-16T05:49:57;4.40;;;2.07;;
17921;SDS011;9086;50.966;3.144;2022-10-16T05:52:24;2.47;;;1.87;;
17921;SDS011;9086;50.966;3.144;2022-10-16T05:54:50;2.57;;;1.50;;
17921;SDS011;9086;50.966;3.144;2022-10-16T05:57:16;2.93;;;1.40;;
17921;SDS011;9086;50.966;3.144;2022-10-16T05:59:42;4.53;;;1.73;;
17921;SDS011;9086;50.966;3.144;2022-10-16T06:02:11;3.50;;;1.70;;
17921;SDS011;9086;50.966;3.144;2022-10-16T06:04:37;3.83;;;1.40;;
17921;SDS011;9086;50.966;3.144;2022-10-16T06:07:03;4.33;;;1.43;;
17921;SDS011;9086;50.966;3.144;2022-10-16T06:09:29;2.73;;;1.73;;
17921;SDS011;9086;50.966;3.144;2022-10-16T06:11:55;4.03;;;1.40;;
17921;SDS011;9086;50.966;3.144;2022-10-16T06:14:21;4.63;;;1.43;;
17921;SDS011;9086;50.966;3.144;2022-10-16T06:16:47;4.10;;;1.70;;
17921;SDS011;9086;50.966;3.144;2022-10-16T06:19:13;1.90;;;1.13;;
17921;SDS011;9086;50.966;3.144;2022-10-16T06:21:41;4.73;;;1.47;;
17921;SDS011;9086;50.966;3.144;2022-10-16T06:24:07;4.13;;;1.40;;
17921;SDS011;9086;50.966;3.144;2022-10-16T06:26:33;3.07;;;1.37;;
17921;SDS011;9086;50.966;3.144;2022-10-16T06:28:59;5.17;;;1.50;;
17921;SDS011;9086;50.966;3.144;2022-10-16T06:31:26;4.83;;;1.83;;
17921;SDS011;9086;50.966;3.144;2022-10-16T06:33:55;2.80;;;1.57;;
17921;SDS011;9086;50.966;3.144;2022-10-16T06:36:21;3.87;;;1.80;;
17921;SDS011;9086;50.966;3.144;2022-10-16T06:38:48;6.87;;;1.80;;
17921;SDS011;9086;50.966;3.144;2022-10-16T06:41:15;5.03;;;1.77;;
17921;SDS011;9086;50.966;3.144;2022-10-16T06:43:42;4.23;;;1.60;;
17921;SDS011;9086;50.966;3.144;2022-10-16T06:46:10;3.23;;;1.60;;
17921;SDS011;9086;50.966;3.144;2022-10-16T06:48:37;5.23;;;1.63;;
17921;SDS011;9086;50.966;3.144;2022-10-16T06:51:08;5.53;;;1.60;;
17921;SDS011;9086;50.966;3.144;2022-10-16T06:53:35;3.10;;;1.27;;
17921;SDS011;9086;50.966;3.144;2022-10-16T06:56:08;3.30;;;1.70;;
17921;SDS011;9086;50.966;3.144;2022-10-16T06:58:34;4.40;;;1.73;;
17921;SDS011;9086;50.966;3.144;2022-10-16T07:01:00;3.87;;;1.90;;
17921;SDS011;9086;50.966;3.144;2022-10-16T07:03:26;1.90;;;1.43;;
17921;SDS011;9086;50.966;3.144;2022-10-16T07:05:52;7.60;;;2.30;;
17921;SDS011;9086;50.966;3.144;2022-10-16T07:08:18;2.53;;;1.73;;
17921;SDS011;9086;50.966;3.144;2022-10-16T07:10:44;4.13;;;1.43;;
17921;SDS011;9086;50.966;3.144;2022-10-16T07:13:11;3.23;;;1.47;;
17921;SDS011;9086;50.966;3.144;2022-10-16T07:15:39;2.87;;;1.50;;
17921;SDS011;9086;50.966;3.144;2022-10-16T07:18:05;2.93;;;1.50;;
17921;SDS011;9086;50.966;3.144;2022-10-16T07:20:31;6.60;;;1.60;;
17921;SDS011;9086;50.966;3.144;2022-10-16T07:22:57;3.90;;;1.50;;
17921;SDS011;9086;50.966;3.144;2022-10-16T07:25:23;2.73;;;1.93;;
17921;SDS011;9086;50.966;3.144;2022-10-16T07:27:49;5.50;;;2.07;;
17921;SDS011;9086;50.966;3.144;2022-10-16T07:30:15;3.27;;;2.00;;
17921;SDS011;9086;50.966;3.144;2022-10-16T07:32:41;5.43;;;2.00;;
17921;SDS011;9086;50.966;3.144;2022-10-16T07:35:07;2.73;;;2.00;;
17921;SDS011;9086;50.966;3.144;2022-10-16T07:37:34;5.93;;;2.10;;
17921;SDS011;9086;50.966;3.144;2022-10-16T07:40:00;5.20;;;2.00;;
17921;SDS011;9086;50.966;3.144;2022-10-16T07:42:26;3.67;;;2.07;;
17921;SDS011;9086;50.966;3.144;2022-10-16T07:44:53;5.43;;;1.97;;
17921;SDS011;9086;50.966;3.144;2022-10-16T07:47:19;4.43;;;2.43;;
17921;SDS011;9086;50.966;3.144;2022-10-16T07:49:45;5.13;;;2.27;;
17921;SDS011;9086;50.966;3.144;2022-10-16T07:52:12;3.30;;;1.67;;
17921;SDS011;9086;50.966;3.144;2022-10-16T07:54:38;4.77;;;1.83;;
17921;SDS011;9086;50.966;3.144;2022-10-16T07:57:04;5.43;;;1.87;;
17921;SDS011;9086;50.966;3.144;2022-10-16T07:59:30;4.17;;;1.40;;
17921;SDS011;9086;50.966;3.144;2022-10-16T08:01:56;4.60;;;1.70;;
17921;SDS011;9086;50.966;3.144;2022-10-16T08:04:22;2.90;;;1.30;;
17921;SDS011;9086;50.966;3.144;2022-10-16T08:06:48;4.27;;;1.70;;
17921;SDS011;9086;50.966;3.144;2022-10-16T08:09:14;3.33;;;1.53;;
17921;SDS011;9086;50.966;3.144;2022-10-16T08:11:40;4.57;;;1.63;;
17921;SDS011;9086;50.966;3.144;2022-10-16T08:14:06;3.07;;;1.43;;
17921;SDS011;9086;50.966;3.144;2022-10-16T08:16:32;2.50;;;1.40;;
17921;SDS011;9086;50.966;3.144;2022-10-16T08:18:58;3.43;;;1.27;;
17921;SDS011;9086;50.966;3.144;2022-10-16T08:21:24;4.63;;;1.97;;
17921;SDS011;9086;50.966;3.144;2022-10-16T08:23:51;3.87;;;1.40;;
17921;SDS011;9086;50.966;3.144;2022-10-16T08:26:17;5.93;;;1.20;;
17921;SDS011;9086;50.966;3.144;2022-10-16T08:28:44;2.17;;;1.20;;
17921;SDS011;9086;50.966;3.144;2022-10-16T08:31:11;4.37;;;1.70;;
17921;SDS011;9086;50.966;3.144;2022-10-16T08:33:38;6.23;;;1.70;;
17921;SDS011;9086;50.966;3.144;2022-10-16T08:36:04;4.00;;;1.50;;
17921;SDS011;9086;50.966;3.144;2022-10-16T08:38:31;4.40;;;1.13;;
17921;SDS011;9086;50.966;3.144;2022-10-16T08:41:21;3.03;;;1.27;;
17921;SDS011;9086;50.966;3.144;2022-10-16T08:49:09;4.90;;;1.40;;
17921;SDS011;9086;50.966;3.144;2022-10-16T08:51:36;3.03;;;1.30;;
17921;SDS011;9086;50.966;3.144;2022-10-16T08:54:03;5.53;;;1.73;;
17921;SDS011;9086;50.966;3.144;2022-10-16T08:56:30;3.57;;;1.40;;
17921;SDS011;9086;50.966;3.144;2022-10-16T08:58:58;4.50;;;1.20;;
17921;SDS011;9086;50.966;3.144;2022-10-16T09:01:25;3.73;;;1.40;;
17921;SDS011;9086;50.966;3.144;2022-10-16T09:06:46;6.07;;;1.77;;
17921;SDS011;9086;50.966;3.144;2022-10-16T09:09:20;3.57;;;1.50;;
17921;SDS011;9086;50.966;3.144;2022-10-16T09:11:51;5.77;;;2.10;;
17921;SDS011;9086;50.966;3.144;2022-10-16T09:14:27;3.90;;;1.53;;
17921;SDS011;9086;50.966;3.144;2022-10-16T09:19:51;4.70;;;1.67;;
17921;SDS011;9086;50.966;3.144;2022-10-16T09:22:19;2.80;;;1.40;;
17921;SDS011;9086;50.966;3.144;2022-10-16T09:24:47;2.93;;;1.60;;
17921;SDS011;9086;50.966;3.144;2022-10-16T09:27:14;3.70;;;1.60;;
17921;SDS011;9086;50.966;3.144;2022-10-16T09:29:40;6.27;;;1.87;;
17921;SDS011;9086;50.966;3.144;2022-10-16T09:32:13;4.43;;;1.50;;
17921;SDS011;9086;50.966;3.144;2022-10-16T09:35:01;8.40;;;1.77;;
17921;SDS011;9086;50.966;3.144;2022-10-16T09:37:27;3.93;;;1.47;;
17921;SDS011;9086;50.966;3.144;2022-10-16T09:39:53;5.77;;;1.70;;
17921;SDS011;9086;50.966;3.144;2022-10-16T09:42:21;5.03;;;1.23;;
17921;SDS011;9086;50.966;3.144;2022-10-16T09:44:49;4.97;;;1.80;;
17921;SDS011;9086;50.966;3.144;2022-10-16T09:47:20;4.50;;;1.20;;
17921;SDS011;9086;50.966;3.144;2022-10-16T09:49:54;6.43;;;1.60;;
17921;SDS011;9086;50.966;3.144;2022-10-16T09:52:22;6.93;;;1.63;;
17921;SDS011;9086;50.966;3.144;2022-10-16T09:55:34;5.30;;;1.77;;
17921;SDS011;9086;50.966;3.144;2022-10-16T09:57:35;7.27;;;1.37;;
17921;SDS011;9086;50.966;3.144;2022-10-16T10:00:04;5.83;;;1.40;;
17921;SDS011;9086;50.966;3.144;2022-10-16T10:02:34;5.43;;;1.63;;
17921;SDS011;9086;50.966;3.144;2022-10-16T10:05:00;6.57;;;1.40;;
17921;SDS011;9086;50.966;3.144;2022-10-16T10:07:28;6.07;;;1.97;;
17921;SDS011;9086;50.966;3.144;2022-10-16T10:09:59;6.13;;;1.83;;
17921;SDS011;9086;50.966;3.144;2022-10-16T10:12:27;9.67;;;2.23;;
17921;SDS011;9086;50.966;3.144;2022-10-16T10:14:56;5.40;;;1.40;;
17921;SDS011;9086;50.966;3.144;2022-10-16T10:17:27;6.43;;;1.80;;
17921;SDS011;9086;50.966;3.144;2022-10-16T10:19:57;3.47;;;1.40;;
17921;SDS011;9086;50.966;3.144;2022-10-16T10:22:30;5.40;;;1.60;;
17921;SDS011;9086;50.966;3.144;2022-10-16T10:25:07;7.97;;;1.52;;
17921;SDS011;9086;50.966;3.144;2022-10-16T10:46:05;3.33;;;1.33;;
17921;SDS011;9086;50.966;3.144;2022-10-16T10:48:50;5.43;;;1.48;;
17921;SDS011;9086;50.966;3.144;2022-10-16T10:51:20;3.88;;;1.17;;
17921;SDS011;9086;50.966;3.144;2022-10-16T11:04:11;3.42;;;1.50;;
17921;SDS011;9086;50.966;3.144;2022-10-16T11:07:04;6.15;;;1.50;;
17921;SDS011;9086;50.966;3.144;2022-10-16T11:09:47;5.80;;;1.55;;
17921;SDS011;9086;50.966;3.144;2022-10-16T11:19:45;6.88;;;1.45;;
17921;SDS011;9086;50.966;3.144;2022-10-16T11:25:02;5.22;;;1.70;;
17921;SDS011;9086;50.966;3.144;2022-10-16T11:27:41;8.48;;;1.70;;
17921;SDS011;9086;50.966;3.144;2022-10-16T11:35:29;5.95;;;1.30;;
17921;SDS011;9086;50.966;3.144;2022-10-16T11:37:58;6.47;;;1.20;;
17921;SDS011;9086;50.966;3.144;2022-10-16T11:40:28;6.00;;;1.45;;
17921;SDS011;9086;50.966;3.144;2022-10-16T11:42:59;4.90;;;1.58;;
17921;SDS011;9086;50.966;3.144;2022-10-16T11:45:33;5.63;;;1.27;;
17921;SDS011;9086;50.966;3.144;2022-10-16T11:48:02;5.43;;;1.33;;
17921;SDS011;9086;50.966;3.144;2022-10-16T11:53:04;7.18;;;1.70;;
17921;SDS011;9086;50.966;3.144;2022-10-16T11:55:36;7.97;;;1.55;;
17921;SDS011;9086;50.966;3.144;2022-10-16T12:00:57;5.43;;;1.60;;
17921;SDS011;9086;50.966;3.144;2022-10-16T12:03:28;6.25;;;1.45;;
17921;SDS011;9086;50.966;3.144;2022-10-16T12:08:28;8.82;;;1.77;;
17921;SDS011;9086;50.966;3.144;2022-10-16T12:11:05;6.30;;;1.88;;
17921;SDS011;9086;50.966;3.144;2022-10-16T12:13:33;5.10;;;1.95;;
17921;SDS011;9086;50.966;3.144;2022-10-16T12:18:38;6.53;;;1.75;;
17921;SDS011;9086;50.966;3.144;2022-10-16T12:21:04;3.03;;;1.05;;
17921;SDS011;9086;50.966;3.144;2022-10-16T12:26:34;3.60;;;1.35;;
17921;SDS011;9086;50.966;3.144;2022-10-16T12:31:44;4.95;;;1.10;;
17921;SDS011;9086;50.966;3.144;2022-10-16T12:34:31;3.38;;;1.00;;
17921;SDS011;9086;50.966;3.144;2022-10-16T12:39:36;5.78;;;1.67;;
17921;SDS011;9086;50.966;3.144;2022-10-16T12:42:03;3.35;;;1.40;;
17921;SDS011;9086;50.966;3.144;2022-10-16T12:44:34;6.80;;;1.42;;
17921;SDS011;9086;50.966;3.144;2022-10-16T12:47:00;6.18;;;1.63;;
17921;SDS011;9086;50.966;3.144;2022-10-16T12:51:59;3.65;;;1.27;;
17921;SDS011;9086;50.966;3.144;2022-10-16T12:54:34;5.43;;;1.27;;
17921;SDS011;9086;50.966;3.144;2022-10-16T13:10:37;4.55;;;1.10;;
17921;SDS011;9086;50.966;3.144;2022-10-16T13:18:24;2.80;;;1.05;;
17921;SDS011;9086;50.966;3.144;2022-10-16T13:28:35;2.60;;;1.10;;
17921;SDS011;9086;50.966;3.144;2022-10-16T13:31:01;2.58;;;1.20;;
17921;SDS011;9086;50.966;3.144;2022-10-16T13:35:55;2.58;;;1.20;;
17921;SDS011;9086;50.966;3.144;2022-10-16T13:38:22;2.13;;;0.98;;
17921;SDS011;9086;50.966;3.144;2022-10-16T13:43:15;3.05;;;1.10;;
17921;SDS011;9086;50.966;3.144;2022-10-16T13:45:41;2.58;;;0.80;;
17921;SDS011;9086;50.966;3.144;2022-10-16T13:48:17;3.17;;;0.98;;
17921;SDS011;9086;50.966;3.144;2022-10-16T13:50:43;2.08;;;0.80;;
17921;SDS011;9086;50.966;3.144;2022-10-16T13:53:13;2.45;;;0.65;;
17921;SDS011;9086;50.966;3.144;2022-10-16T13:55:40;3.40;;;0.90;;
17921;SDS011;9086;50.966;3.144;2022-10-16T13:58:16;1.23;;;0.70;;
17921;SDS011;9086;50.966;3.144;2022-10-16T14:03:40;1.13;;;0.77;;
17921;SDS011;9086;50.966;3.144;2022-10-16T14:06:11;3.55;;;0.80;;
17921;SDS011;9086;50.966;3.144;2022-10-16T14:08:40;1.70;;;0.63;;
17921;SDS011;9086;50.966;3.144;2022-10-16T14:11:08;0.60;;;0.60;;
17921;SDS011;9086;50.966;3.144;2022-10-16T14:13:36;2.08;;;0.90;;
17921;SDS011;9086;50.966;3.144;2022-10-16T14:16:10;2.83;;;0.80;;
17921;SDS011;9086;50.966;3.144;2022-10-16T14:18:37;2.75;;;0.82;;
17921;SDS011;9086;50.966;3.144;2022-10-16T14:21:05;3.03;;;1.23;;
17921;SDS011;9086;50.966;3.144;2022-10-16T14:23:33;3.47;;;0.90;;
17921;SDS011;9086;50.966;3.144;2022-10-16T14:28:38;2.47;;;1.20;;
17921;SDS011;9086;50.966;3.144;2022-10-16T14:34:02;2.85;;;0.70;;
17921;SDS011;9086;50.966;3.144;2022-10-16T14:36:29;2.83;;;0.93;;
17921;SDS011;9086;50.966;3.144;2022-10-16T14:41:22;1.25;;;0.60;;
17921;SDS011;9086;50.966;3.144;2022-10-16T14:43:50;1.25;;;0.65;;
17921;SDS011;9086;50.966;3.144;2022-10-16T14:46:17;0.77;;;0.75;;
17921;SDS011;9086;50.966;3.144;2022-10-16T14:48:46;1.98;;;1.00;;
17921;SDS011;9086;50.966;3.144;2022-10-16T14:51:14;2.00;;;0.63;;
17921;SDS011;9086;50.966;3.144;2022-10-16T14:53:40;1.13;;;0.68;;
17921;SDS011;9086;50.966;3.144;2022-10-16T14:56:07;2.58;;;0.50;;
17921;SDS011;9086;50.966;3.144;2022-10-16T14:58:33;2.88;;;0.82;;
17921;SDS011;9086;50.966;3.144;2022-10-16T15:01:00;2.60;;;0.70;;
17921;SDS011;9086;50.966;3.144;2022-10-16T15:03:26;1.92;;;0.80;;
17921;SDS011;9086;50.966;3.144;2022-10-16T15:05:53;2.53;;;1.25;;
17921;SDS011;9086;50.966;3.144;2022-10-16T15:08:19;2.30;;;1.15;;
17921;SDS011;9086;50.966;3.144;2022-10-16T15:10:45;3.58;;;1.25;;
17921;SDS011;9086;50.966;3.144;2022-10-16T15:13:11;1.83;;;0.88;;
17921;SDS011;9086;50.966;3.144;2022-10-16T15:15:45;4.53;;;1.15;;
17921;SDS011;9086;50.966;3.144;2022-10-16T15:18:11;1.83;;;0.80;;
17921;SDS011;9086;50.966;3.144;2022-10-16T15:20:39;2.72;;;0.95;;
17921;SDS011;9086;50.966;3.144;2022-10-16T15:23:16;3.75;;;0.93;;
17921;SDS011;9086;50.966;3.144;2022-10-16T15:25:43;3.53;;;0.88;;
17921;SDS011;9086;50.966;3.144;2022-10-16T15:28:09;3.75;;;0.90;;
17921;SDS011;9086;50.966;3.144;2022-10-16T15:30:36;3.45;;;1.15;;
17921;SDS011;9086;50.966;3.144;2022-10-16T15:33:02;2.25;;;0.90;;
17921;SDS011;9086;50.966;3.144;2022-10-16T15:35:29;3.97;;;1.40;;
17921;SDS011;9086;50.966;3.144;2022-10-16T15:37:55;2.53;;;0.90;;
17921;SDS011;9086;50.966;3.144;2022-10-16T15:40:21;3.13;;;1.42;;
17921;SDS011;9086;50.966;3.144;2022-10-16T15:42:48;2.25;;;1.13;;
17921;SDS011;9086;50.966;3.144;2022-10-16T15:45:14;3.47;;;1.13;;
17921;SDS011;9086;50.966;3.144;2022-10-16T15:47:41;5.25;;;1.52;;
17921;SDS011;9086;50.966;3.144;2022-10-16T15:50:09;3.53;;;1.27;;
17921;SDS011;9086;50.966;3.144;2022-10-16T15:52:36;2.60;;;1.30;;
17921;SDS011;9086;50.966;3.144;2022-10-16T15:55:04;4.68;;;1.40;;
17921;SDS011;9086;50.966;3.144;2022-10-16T15:57:30;2.45;;;1.27;;
17921;SDS011;9086;50.966;3.144;2022-10-16T15:59:56;2.75;;;1.33;;
17921;SDS011;9086;50.966;3.144;2022-10-16T16:02:22;3.72;;;1.52;;
17921;SDS011;9086;50.966;3.144;2022-10-16T16:04:48;4.55;;;1.85;;
17921;SDS011;9086;50.966;3.144;2022-10-16T16:07:14;2.20;;;1.77;;
17921;SDS011;9086;50.966;3.144;2022-10-16T16:09:40;5.18;;;2.28;;
17921;SDS011;9086;50.966;3.144;2022-10-16T16:12:06;2.22;;;1.85;;
17921;SDS011;9086;50.966;3.144;2022-10-16T16:14:32;3.00;;;1.95;;
17921;SDS011;9086;50.966;3.144;2022-10-16T16:16:58;3.53;;;2.00;;
17921;SDS011;9086;50.966;3.144;2022-10-16T16:19:24;4.13;;;2.20;;
17921;SDS011;9086;50.966;3.144;2022-10-16T16:21:50;3.80;;;1.95;;
17921;SDS011;9086;50.966;3.144;2022-10-16T16:24:16;3.30;;;2.08;;
17921;SDS011;9086;50.966;3.144;2022-10-16T16:26:43;4.78;;;1.73;;
17921;SDS011;9086;50.966;3.144;2022-10-16T16:29:13;3.65;;;1.90;;
17921;SDS011;9086;50.966;3.144;2022-10-16T16:31:39;4.03;;;1.98;;
17921;SDS011;9086;50.966;3.144;2022-10-16T16:34:05;3.17;;;2.40;;
17921;SDS011;9086;50.966;3.144;2022-10-16T16:36:32;3.60;;;2.22;;
17921;SDS011;9086;50.966;3.144;2022-10-16T16:38:58;8.90;;;3.60;;
17921;SDS011;9086;50.966;3.144;2022-10-16T16:41:25;3.78;;;3.17;;
17921;SDS011;9086;50.966;3.144;2022-10-16T16:43:52;6.22;;;3.60;;
17921;SDS011;9086;50.966;3.144;2022-10-16T16:46:19;6.88;;;3.90;;
17921;SDS011;9086;50.966;3.144;2022-10-16T16:48:45;5.35;;;4.45;;
17921;SDS011;9086;50.966;3.144;2022-10-16T16:51:13;7.53;;;4.15;;
17921;SDS011;9086;50.966;3.144;2022-10-16T16:53:41;4.65;;;3.50;;
17921;SDS011;9086;50.966;3.144;2022-10-16T16:56:08;5.25;;;3.42;;
17921;SDS011;9086;50.966;3.144;2022-10-16T16:58:34;5.57;;;3.28;;
17921;SDS011;9086;50.966;3.144;2022-10-16T17:01:00;7.05;;;3.13;;
17921;SDS011;9086;50.966;3.144;2022-10-16T17:03:30;16.05;;;12.57;;
17921;SDS011;9086;50.966;3.144;2022-10-16T17:05:57;17.60;;;15.98;;
17921;SDS011;9086;50.966;3.144;2022-10-16T17:08:23;6.90;;;6.22;;
17921;SDS011;9086;50.966;3.144;2022-10-16T17:10:49;7.07;;;5.28;;
17921;SDS011;9086;50.966;3.144;2022-10-16T17:13:18;7.85;;;5.15;;
17921;SDS011;9086;50.966;3.144;2022-10-16T17:15:48;7.15;;;4.68;;
17921;SDS011;9086;50.966;3.144;2022-10-16T17:18:14;14.52;;;5.22;;
17921;SDS011;9086;50.966;3.144;2022-10-16T17:20:41;7.53;;;4.80;;
17921;SDS011;9086;50.966;3.144;2022-10-16T17:23:07;8.50;;;5.20;;
17921;SDS011;9086;50.966;3.144;2022-10-16T17:25:40;4.50;;;4.10;;
17921;SDS011;9086;50.966;3.144;2022-10-16T17:28:07;8.90;;;4.28;;